F/V Manbrisa — FMGR — position and weather

sailwx.info

Track history (hours):
 
Tides and Currents Weather Stations Pressure Air Temp Water Temp Dewpoint Dewpoint Depression Visibility Wind Speed Wind Dir Waves Ship Positions

F/V Manbrisa

Last reported at 2017-Sep-20 21:00 UTC. Time now 2017-Sep-21 01:20 UTC.
Position N 46°30' W 001°47'.

Length 18 m.

Type: Fishing. MMSI: 228229900.

Date/timePositionNaut miles runAvg speedWind from/ knotsBaromVisibWave heightAir tempDewpointWater temp
2017-Sep-20 21:00N 46°30' W 001°47'0 0.0
2017-Sep-20 20:30N 46°30' W 001°47'0 0.0
2017-Sep-20 20:00N 46°30' W 001°47'0 0.0
2017-Sep-20 19:30N 46°30' W 001°47'0 0.0
2017-Sep-20 19:00N 46°30' W 001°47'0 0.2
2017-Sep-20 18:30N 46°30' W 001°47'2 3.1
2017-Sep-20 18:00N 46°29' W 001°49'4 8.3
2017-Sep-20 17:30N 46°29' W 001°55'3 5.5
2017-Sep-20 17:00N 46°30' W 001°59'0 0.4
2017-Sep-20 16:30N 46°30' W 001°59'0 0.7
2017-Sep-20 16:00N 46°30' W 001°60'0 0.4
2017-Sep-20 15:30N 46°30' W 001°60'1 1.8
2017-Sep-20 15:00N 46°30' W 002°01'1 0.9
2017-Sep-20 14:00N 46°29' W 002°03'1 2.9
2017-Sep-20 13:30N 46°29' W 002°01'0 0.3
2017-Sep-20 13:00N 46°29' W 002°01'0 0.6
2017-Sep-20 12:30N 46°29' W 002°01'0 0.9
2017-Sep-20 12:00N 46°28' W 002°01'1 2.3
2017-Sep-20 11:30N 46°27' W 002°02'3 5.1
2017-Sep-20 11:00N 46°27' W 001°58'0 0.3
2017-Sep-20 10:30N 46°27' W 001°58'0 0.5
2017-Sep-20 10:00N 46°27' W 001°58'0 0.7
2017-Sep-20 09:30N 46°26' W 001°58'1 2.7
2017-Sep-20 09:00N 46°25' W 001°56'1 2.3
2017-Sep-20 08:30N 46°24' W 001°57'0 0.4
2017-Sep-20 08:00N 46°24' W 001°57'0 0.5
2017-Sep-20 07:30N 46°24' W 001°57'3 5.4
2017-Sep-20 06:59N 46°23' W 002°00'0 0.7
2017-Sep-20 06:30N 46°22' W 001°60'1 1.7
2017-Sep-20 06:00N 46°23' W 001°59'3 5.8
2017-Sep-20 05:30N 46°24' W 001°55'4 8.9
2017-Sep-20 05:00N 46°27' W 001°50'3 6.8
2017-Sep-20 04:30N 46°30' W 001°47'0 0.3
2017-Sep-20 04:00N 46°30' W 001°47'0 0.0
2017-Sep-20 03:30N 46°30' W 001°47'0 0.0
2017-Sep-20 03:00N 46°30' W 001°47'0 0.0
2017-Sep-20 02:30N 46°30' W 001°47'0 0.0
2017-Sep-20 02:00N 46°30' W 001°47'0 0.0
2017-Sep-20 01:30N 46°30' W 001°47'0 0.0
2017-Sep-20 01:00N 46°30' W 001°47'0 0.0
2017-Sep-20 00:30N 46°30' W 001°47'0 0.0
2017-Sep-20 00:00N 46°30' W 001°47'0 0.0
2017-Sep-19 23:30N 46°30' W 001°47'0 0.0
2017-Sep-19 23:00N 46°30' W 001°47'0 0.0
2017-Sep-19 22:30N 46°30' W 001°47'0 0.0
2017-Sep-19 22:00N 46°30' W 001°47'0 0.0
2017-Sep-19 21:30N 46°30' W 001°47'0 0.0
2017-Sep-19 21:00N 46°30' W 001°47'0 0.0
2017-Sep-19 20:30N 46°30' W 001°47'0 0.0
2017-Sep-19 20:00N 46°30' W 001°47'0 0.0
2017-Sep-19 19:30N 46°30' W 001°47'0 0.0
2017-Sep-19 19:00N 46°30' W 001°47'1 1.6
2017-Sep-19 18:30N 46°29' W 001°47'5 9.8
2017-Sep-19 18:00N 46°24' W 001°49'5 9.7
2017-Sep-19 17:30N 46°20' W 001°50'1 1.3
2017-Sep-19 16:38N 46°18' W 001°50'1 5.9
2017-Sep-19 16:29N 46°19' W 001°50'9 2.6
2017-Sep-19 12:54N 46°10' W 001°49'5 8.5
2017-Sep-19 12:20N 46°09' W 001°42'0 0.3
2017-Sep-19 11:53N 46°09' W 001°42'0 0.4
2017-Sep-19 11:09N 46°09' W 001°42'2 8.6
2017-Sep-19 10:58N 46°08' W 001°41'7 3.8
2017-Sep-19 09:13N 46°03' W 001°34'2 0.6
2017-Sep-19 05:14N 46°01' W 001°36'0 1.7
2017-Sep-19 05:00N 46°01' W 001°36'1 1.1
2017-Sep-19 04:00N 46°01' W 001°34'3 5.2
2017-Sep-19 03:27N 46°03' W 001°37'9 7.0
2017-Sep-19 02:07N 46°09' W 001°47'1 7.1
2017-Sep-19 01:55N 46°10' W 001°49'3 7.1
2017-Sep-19 01:30N 46°12' W 001°52'4 7.2
2017-Sep-19 00:58N 46°15' W 001°56'5 7.1
2017-Sep-19 00:16N 46°19' W 002°00'2 7.0
2017-Sep-19 00:00N 46°20' W 002°02'4 7.2
2017-Sep-18 23:30N 46°23' W 002°05'4 7.1
2017-Sep-18 23:00N 46°26' W 002°08'3 7.0
2017-Sep-18 22:30N 46°28' W 002°12'4 7.0
2017-Sep-18 22:00N 46°31' W 002°16'6 6.9
2017-Sep-18 21:09N 46°35' W 002°22'27 2.1
2017-Sep-18 08:24N 47°01' W 002°32'0 0.6
2017-Sep-18 07:49N 47°01' W 002°31'1 1.9
2017-Sep-18 07:30N 47°01' W 002°32'4 7.8
2017-Sep-18 07:00N 47°04' W 002°28'0 1.0
2017-Sep-18 06:30N 47°04' W 002°27'1 1.5
2017-Sep-18 06:00N 47°05' W 002°27'1 1.4
2017-Sep-18 05:30N 47°04' W 002°27'2 3.7
2017-Sep-18 05:00N 47°03' W 002°28'4 7.5
2017-Sep-18 04:30N 46°59' W 002°30'5 8.1
2017-Sep-18 03:52N 46°54' W 002°29'3 9.1
2017-Sep-18 03:30N 46°52' W 002°26'5 9.0
2017-Sep-18 02:55N 46°48' W 002°20'5 9.1
2017-Sep-18 02:22N 46°44' W 002°15'3 9.1
2017-Sep-18 02:00N 46°42' W 002°12'5 8.7
2017-Sep-18 01:24N 46°38' W 002°06'4 8.5
2017-Sep-18 01:00N 46°36' W 002°03'4 8.5
2017-Sep-18 00:30N 46°33' W 001°58'4 8.5
2017-Sep-18 00:00N 46°30' W 001°54'4 8.2
2017-Sep-17 23:30N 46°28' W 001°48'2 3.0
2017-Sep-17 23:00N 46°30' W 001°47'0 0.0
2017-Sep-17 22:30N 46°30' W 001°47'0 0.4
2017-Sep-17 22:00N 46°30' W 001°47'2 3.1
2017-Sep-17 21:30N 46°28' W 001°47'2 4.2
2017-Sep-17 21:00N 46°26' W 001°46'3 5.9
2017-Sep-17 20:30N 46°24' W 001°44'3 6.3
2017-Sep-17 20:00N 46°21' W 001°43'3 6.4
2017-Sep-17 19:30N 46°18' W 001°41'3 6.3
2017-Sep-17 19:00N 46°15' W 001°39'6 4.4
2017-Sep-17 17:46N 46°10' W 001°37'1 3.4
2017-Sep-17 17:28N 46°10' W 001°38'2 1.1
2017-Sep-17 16:04N 46°10' W 001°36'3 0.3
2017-Sep-17 06:11N 46°07' W 001°38'2 0.9
2017-Sep-17 04:33N 46°06' W 001°40'0 3.1
2017-Sep-17 04:30N 46°06' W 001°39'5 3.5
2017-Sep-17 03:05N 46°07' W 001°32'1 2.3
2017-Sep-17 02:52N 46°07' W 001°33'2 0.5
2017-Sep-16 23:14N 46°07' W 001°30'1 2.7
2017-Sep-16 22:48N 46°07' W 001°29'1 2.1
2017-Sep-16 22:28N 46°07' W 001°28'0 0.9
2017-Sep-16 22:00N 46°07' W 001°28'0 0.8
2017-Sep-16 21:30N 46°07' W 001°29'0 0.9
2017-Sep-16 21:00N 46°07' W 001°30'0 0.9
2017-Sep-16 20:30N 46°07' W 001°30'0 0.8
2017-Sep-16 20:00N 46°07' W 001°31'1 1.4
2017-Sep-16 19:30N 46°07' W 001°32'2 1.2
2017-Sep-16 17:44N 46°07' W 001°29'13 1.0
2017-Sep-16 04:35N 46°13' W 001°46'1 8.3
2017-Sep-16 04:28N 46°14' W 001°46'4 8.4
2017-Sep-16 04:00N 46°18' W 001°46'4 8.3
2017-Sep-16 03:30N 46°22' W 001°47'4 8.2
2017-Sep-16 03:00N 46°26' W 001°47'4 7.3
2017-Sep-16 02:30N 46°30' W 001°47'0 0.1
2017-Sep-16 02:00N 46°30' W 001°47'0 0.0
2017-Sep-16 01:30N 46°30' W 001°47'0 0.0
2017-Sep-16 01:00N 46°30' W 001°47'0 0.0
2017-Sep-16 00:30N 46°30' W 001°47'0 0.0
2017-Sep-16 00:00N 46°30' W 001°47'0 0.0
2017-Sep-15 23:30N 46°30' W 001°47'0 0.0
2017-Sep-15 23:00N 46°30' W 001°47'0 0.0
2017-Sep-15 22:30N 46°30' W 001°47'0 0.0
2017-Sep-15 22:00N 46°30' W 001°47'0 0.0
2017-Sep-15 21:30N 46°30' W 001°47'0 0.0
2017-Sep-15 21:00N 46°30' W 001°47'0 0.0
2017-Sep-15 20:30N 46°30' W 001°47'0 0.0
2017-Sep-15 20:00N 46°30' W 001°47'0 0.0
2017-Sep-15 19:30N 46°30' W 001°47'0 0.0
2017-Sep-15 19:00N 46°30' W 001°47'0 0.0
2017-Sep-15 18:30N 46°30' W 001°47'0 0.0
2017-Sep-15 18:00N 46°30' W 001°47'0 0.0
2017-Sep-15 17:30N 46°30' W 001°47'0 0.0
2017-Sep-15 17:00N 46°30' W 001°47'0 0.0
2017-Sep-15 16:30N 46°30' W 001°47'0 0.0
2017-Sep-15 16:00N 46°30' W 001°47'0 0.0
2017-Sep-15 15:30N 46°30' W 001°47'0 0.0
2017-Sep-15 15:00N 46°30' W 001°47'0 0.0
2017-Sep-15 14:30N 46°30' W 001°47'0 0.0
2017-Sep-15 14:00N 46°30' W 001°47'0 0.0
2017-Sep-15 13:30N 46°30' W 001°47'0 0.0
2017-Sep-15 13:00N 46°30' W 001°47'0 0.0
2017-Sep-15 12:30N 46°30' W 001°47'0 0.0
2017-Sep-15 12:00N 46°30' W 001°47'0 0.0
2017-Sep-15 11:30N 46°30' W 001°47'0 0.0
2017-Sep-15 11:00N 46°30' W 001°47'0 0.0
2017-Sep-15 10:30N 46°30' W 001°47'0 0.0
2017-Sep-15 10:00N 46°30' W 001°47'0 0.0
2017-Sep-15 09:30N 46°30' W 001°47'0 0.0
2017-Sep-15 09:00N 46°30' W 001°47'0 0.0
2017-Sep-15 08:30N 46°30' W 001°47'0 0.0
2017-Sep-15 08:00N 46°30' W 001°47'0 0.0
2017-Sep-15 07:30N 46°30' W 001°47'0 0.0
2017-Sep-15 07:00N 46°30' W 001°47'0 0.0
2017-Sep-15 06:30N 46°30' W 001°47'0 0.0
2017-Sep-15 06:00N 46°30' W 001°47'0 0.0
2017-Sep-15 05:30N 46°30' W 001°47'0 0.0
2017-Sep-15 05:00N 46°30' W 001°47'0 0.0
2017-Sep-15 04:30N 46°30' W 001°47'0 0.0
2017-Sep-15 04:00N 46°30' W 001°47'0 0.0
2017-Sep-15 03:30N 46°30' W 001°47'0 0.0
2017-Sep-15 03:00N 46°30' W 001°47'0 0.0
2017-Sep-15 02:30N 46°30' W 001°47'0 0.0
2017-Sep-15 02:00N 46°30' W 001°47'0 0.0
2017-Sep-15 01:30N 46°30' W 001°47'0 0.0
2017-Sep-15 01:00N 46°30' W 001°47'0 0.0
2017-Sep-15 00:30N 46°30' W 001°47'0 0.0
2017-Sep-15 00:00N 46°30' W 001°47'0 0.0
2017-Sep-14 23:30N 46°30' W 001°47'0 0.0
2017-Sep-14 23:00N 46°30' W 001°47'0 0.0
2017-Sep-14 22:30N 46°30' W 001°47'0 0.0
2017-Sep-14 22:00N 46°30' W 001°47'0 0.0
2017-Sep-14 21:30N 46°30' W 001°47'0 0.3
2017-Sep-14 21:00N 46°30' W 001°47'1 2.1
2017-Sep-14 20:30N 46°29' W 001°48'5 9.1
2017-Sep-14 20:00N 46°30' W 001°54'5 9.4
2017-Sep-14 19:30N 46°32' W 002°00'5 9.3
2017-Sep-14 19:00N 46°33' W 002°07'5 6.6
2017-Sep-14 18:18N 46°35' W 002°13'0 0.3
2017-Sep-14 18:00N 46°35' W 002°13'1 2.2
2017-Sep-14 17:30N 46°35' W 002°11'4 3.3
2017-Sep-14 16:13N 46°37' W 002°17'1 4.0
2017-Sep-14 16:00N 46°37' W 002°15'4 0.3
2017-Sep-14 03:07N 46°33' W 002°12'2 4.0
2017-Sep-14 02:33N 46°33' W 002°08'0 4.2
2017-Sep-14 02:30N 46°32' W 002°08'2 4.2
2017-Sep-14 01:58N 46°32' W 002°05'2 4.5
2017-Sep-14 01:30N 46°31' W 002°02'2 4.6
2017-Sep-14 01:00N 46°30' W 001°59'3 5.1
2017-Sep-14 00:30N 46°30' W 001°55'3 5.5
2017-Sep-14 00:00N 46°29' W 001°52'3 6.0
2017-Sep-13 23:30N 46°28' W 001°47'1 2.8
2017-Sep-13 23:00N 46°30' W 001°47'0 0.3
2017-Sep-13 22:30N 46°30' W 001°47'1 2.4
2017-Sep-13 22:00N 46°29' W 001°47'3 5.8
2017-Sep-13 21:30N 46°29' W 001°51'3 6.5
2017-Sep-13 21:00N 46°30' W 001°56'3 6.7
2017-Sep-13 20:30N 46°32' W 001°60'3 6.6
2017-Sep-13 20:00N 46°33' W 002°04'3 6.7
2017-Sep-13 19:30N 46°35' W 002°09'4 6.5
2017-Sep-13 18:49N 46°37' W 002°14'5 0.1
2017-Sep-12 04:56N 46°35' W 002°08'4 9.2
2017-Sep-12 04:30N 46°33' W 002°03'4 9.1
2017-Sep-12 04:00N 46°31' W 001°57'4 9.0
2017-Sep-12 03:31N 46°29' W 001°52'3 5.9
2017-Sep-12 03:01N 46°29' W 001°48'0 0.9
2017-Sep-12 02:31N 46°30' W 001°47'0 0.0
2017-Sep-12 02:01N 46°30' W 001°47'0 0.0
2017-Sep-12 01:31N 46°30' W 001°47'0 0.0
2017-Sep-12 01:01N 46°30' W 001°47'0 0.0
2017-Sep-12 00:30N 46°30' W 001°47'0 0.0
2017-Sep-12 00:01N 46°30' W 001°47'0 0.0
2017-Sep-11 23:31N 46°30' W 001°47'0 0.0
2017-Sep-11 23:01N 46°30' W 001°47'0 0.0
2017-Sep-11 22:30N 46°30' W 001°47'0 0.0
2017-Sep-11 22:01N 46°30' W 001°47'0 0.0
2017-Sep-11 21:31N 46°30' W 001°47'0 0.0
2017-Sep-11 21:01N 46°30' W 001°47'0 0.0
2017-Sep-11 20:31N 46°30' W 001°47'0 0.0
2017-Sep-11 20:01N 46°30' W 001°47'0 0.0
2017-Sep-11 19:31N 46°30' W 001°47'0 0.0
2017-Sep-11 19:00N 46°30' W 001°47'0 0.3
2017-Sep-11 18:30N 46°30' W 001°47'0 0.8
2017-Sep-11 18:01N 46°30' W 001°48'4 8.2
2017-Sep-11 17:31N 46°26' W 001°47'4 8.2
2017-Sep-11 17:01N 46°22' W 001°47'4 8.4
2017-Sep-11 16:31N 46°17' W 001°46'4 8.6
2017-Sep-11 16:00N 46°13' W 001°46'3 2.1
2017-Sep-11 14:39N 46°10' W 001°46'1 4.8
2017-Sep-11 14:31N 46°10' W 001°47'3 0.4
2017-Sep-11 06:05N 46°09' W 001°43'7 8.3
2017-Sep-11 05:16N 46°16' W 001°43'2 9.0
2017-Sep-11 04:59N 46°19' W 001°44'4 8.9
2017-Sep-11 04:30N 46°23' W 001°45'5 9.1
2017-Sep-11 04:01N 46°27' W 001°46'3 5.3
2017-Sep-11 03:30N 46°30' W 001°47'0 0.0
2017-Sep-11 03:01N 46°30' W 001°47'0 0.0
2017-Sep-11 02:30N 46°30' W 001°47'0 0.0
2017-Sep-11 02:01N 46°30' W 001°47'0 0.0
2017-Sep-11 01:30N 46°30' W 001°47'0 0.0
2017-Sep-11 01:01N 46°30' W 001°47'0 0.0
2017-Sep-11 00:30N 46°30' W 001°47'0 0.0
2017-Sep-11 00:00N 46°30' W 001°47'0 0.0
2017-Sep-10 23:31N 46°30' W 001°47'0 0.0
2017-Sep-10 23:00N 46°30' W 001°47'0 0.0
2017-Sep-10 22:30N 46°30' W 001°47'0 0.0
2017-Sep-10 22:01N 46°30' W 001°47'0 0.0
2017-Sep-10 21:30N 46°30' W 001°47'0 0.0
2017-Sep-10 21:01N 46°30' W 001°47'  
Track history (hours):
 
Tides and Currents Weather Stations Pressure Air Temp Water Temp Dewpoint Dewpoint Depression Visibility Wind Speed Wind Dir Waves Ship Positions

F/V Manbrisa

Last reported at 2017-Sep-20 21:00 UTC. Time now 2017-Sep-21 01:20 UTC.
Position N 46°30' W 001°47'.

Length 18 m.

Type: Fishing. MMSI: 228229900.

Date/timePositionNaut miles runAvg speedWind from/ knotsBaromVisibWave heightAir tempDewpointWater temp
2017-Sep-20 21:00N 46°30' W 001°47'0 0.0
2017-Sep-20 20:30N 46°30' W 001°47'0 0.0
2017-Sep-20 20:00N 46°30' W 001°47'0 0.0
2017-Sep-20 19:30N 46°30' W 001°47'0 0.0
2017-Sep-20 19:00N 46°30' W 001°47'0 0.2
2017-Sep-20 18:30N 46°30' W 001°47'2 3.1
2017-Sep-20 18:00N 46°29' W 001°49'4 8.3
2017-Sep-20 17:30N 46°29' W 001°55'3 5.5
2017-Sep-20 17:00N 46°30' W 001°59'0 0.4
2017-Sep-20 16:30N 46°30' W 001°59'0 0.7
2017-Sep-20 16:00N 46°30' W 001°60'0 0.4
2017-Sep-20 15:30N 46°30' W 001°60'1 1.8
2017-Sep-20 15:00N 46°30' W 002°01'1 0.9
2017-Sep-20 14:00N 46°29' W 002°03'1 2.9
2017-Sep-20 13:30N 46°29' W 002°01'0 0.3
2017-Sep-20 13:00N 46°29' W 002°01'0 0.6
2017-Sep-20 12:30N 46°29' W 002°01'0 0.9
2017-Sep-20 12:00N 46°28' W 002°01'1 2.3
2017-Sep-20 11:30N 46°27' W 002°02'3 5.1
2017-Sep-20 11:00N 46°27' W 001°58'0 0.3
2017-Sep-20 10:30N 46°27' W 001°58'0 0.5
2017-Sep-20 10:00N 46°27' W 001°58'0 0.7
2017-Sep-20 09:30N 46°26' W 001°58'1 2.7
2017-Sep-20 09:00N 46°25' W 001°56'1 2.3
2017-Sep-20 08:30N 46°24' W 001°57'0 0.4
2017-Sep-20 08:00N 46°24' W 001°57'0 0.5
2017-Sep-20 07:30N 46°24' W 001°57'3 5.4
2017-Sep-20 06:59N 46°23' W 002°00'0 0.7
2017-Sep-20 06:30N 46°22' W 001°60'1 1.7
2017-Sep-20 06:00N 46°23' W 001°59'3 5.8
2017-Sep-20 05:30N 46°24' W 001°55'4 8.9
2017-Sep-20 05:00N 46°27' W 001°50'3 6.8
2017-Sep-20 04:30N 46°30' W 001°47'0 0.3
2017-Sep-20 04:00N 46°30' W 001°47'0 0.0
2017-Sep-20 03:30N 46°30' W 001°47'0 0.0
2017-Sep-20 03:00N 46°30' W 001°47'0 0.0
2017-Sep-20 02:30N 46°30' W 001°47'0 0.0
2017-Sep-20 02:00N 46°30' W 001°47'0 0.0
2017-Sep-20 01:30N 46°30' W 001°47'0 0.0
2017-Sep-20 01:00N 46°30' W 001°47'0 0.0
2017-Sep-20 00:30N 46°30' W 001°47'0 0.0
2017-Sep-20 00:00N 46°30' W 001°47'0 0.0
2017-Sep-19 23:30N 46°30' W 001°47'0 0.0
2017-Sep-19 23:00N 46°30' W 001°47'0 0.0
2017-Sep-19 22:30N 46°30' W 001°47'0 0.0
2017-Sep-19 22:00N 46°30' W 001°47'0 0.0
2017-Sep-19 21:30N 46°30' W 001°47'0 0.0
2017-Sep-19 21:00N 46°30' W 001°47'0 0.0
2017-Sep-19 20:30N 46°30' W 001°47'0 0.0
2017-Sep-19 20:00N 46°30' W 001°47'0 0.0
2017-Sep-19 19:30N 46°30' W 001°47'0 0.0
2017-Sep-19 19:00N 46°30' W 001°47'1 1.6
2017-Sep-19 18:30N 46°29' W 001°47'5 9.8
2017-Sep-19 18:00N 46°24' W 001°49'5 9.7
2017-Sep-19 17:30N 46°20' W 001°50'1 1.3
2017-Sep-19 16:38N 46°18' W 001°50'1 5.9
2017-Sep-19 16:29N 46°19' W 001°50'9 2.6
2017-Sep-19 12:54N 46°10' W 001°49'5 8.5
2017-Sep-19 12:20N 46°09' W 001°42'0 0.3
2017-Sep-19 11:53N 46°09' W 001°42'0 0.4
2017-Sep-19 11:09N 46°09' W 001°42'2 8.6
2017-Sep-19 10:58N 46°08' W 001°41'7 3.8
2017-Sep-19 09:13N 46°03' W 001°34'2 0.6
2017-Sep-19 05:14N 46°01' W 001°36'0 1.7
2017-Sep-19 05:00N 46°01' W 001°36'1 1.1
2017-Sep-19 04:00N 46°01' W 001°34'3 5.2
2017-Sep-19 03:27N 46°03' W 001°37'9 7.0
2017-Sep-19 02:07N 46°09' W 001°47'1 7.1
2017-Sep-19 01:55N 46°10' W 001°49'3 7.1
2017-Sep-19 01:30N 46°12' W 001°52'4 7.2
2017-Sep-19 00:58N 46°15' W 001°56'5 7.1
2017-Sep-19 00:16N 46°19' W 002°00'2 7.0
2017-Sep-19 00:00N 46°20' W 002°02'4 7.2
2017-Sep-18 23:30N 46°23' W 002°05'4 7.1
2017-Sep-18 23:00N 46°26' W 002°08'3 7.0
2017-Sep-18 22:30N 46°28' W 002°12'4 7.0
2017-Sep-18 22:00N 46°31' W 002°16'6 6.9
2017-Sep-18 21:09N 46°35' W 002°22'27 2.1
2017-Sep-18 08:24N 47°01' W 002°32'0 0.6
2017-Sep-18 07:49N 47°01' W 002°31'1 1.9
2017-Sep-18 07:30N 47°01' W 002°32'4 7.8
2017-Sep-18 07:00N 47°04' W 002°28'0 1.0
2017-Sep-18 06:30N 47°04' W 002°27'1 1.5
2017-Sep-18 06:00N 47°05' W 002°27'1 1.4
2017-Sep-18 05:30N 47°04' W 002°27'2 3.7
2017-Sep-18 05:00N 47°03' W 002°28'4 7.5
2017-Sep-18 04:30N 46°59' W 002°30'5 8.1
2017-Sep-18 03:52N 46°54' W 002°29'3 9.1
2017-Sep-18 03:30N 46°52' W 002°26'5 9.0
2017-Sep-18 02:55N 46°48' W 002°20'5 9.1
2017-Sep-18 02:22N 46°44' W 002°15'3 9.1
2017-Sep-18 02:00N 46°42' W 002°12'5 8.7
2017-Sep-18 01:24N 46°38' W 002°06'4 8.5
2017-Sep-18 01:00N 46°36' W 002°03'4 8.5
2017-Sep-18 00:30N 46°33' W 001°58'4 8.5
2017-Sep-18 00:00N 46°30' W 001°54'4 8.2
2017-Sep-17 23:30N 46°28' W 001°48'2 3.0
2017-Sep-17 23:00N 46°30' W 001°47'0 0.0
2017-Sep-17 22:30N 46°30' W 001°47'0 0.4
2017-Sep-17 22:00N 46°30' W 001°47'2 3.1
2017-Sep-17 21:30N 46°28' W 001°47'2 4.2
2017-Sep-17 21:00N 46°26' W 001°46'3 5.9
2017-Sep-17 20:30N 46°24' W 001°44'3 6.3
2017-Sep-17 20:00N 46°21' W 001°43'3 6.4
2017-Sep-17 19:30N 46°18' W 001°41'3 6.3
2017-Sep-17 19:00N 46°15' W 001°39'6 4.4
2017-Sep-17 17:46N 46°10' W 001°37'1 3.4
2017-Sep-17 17:28N 46°10' W 001°38'2 1.1
2017-Sep-17 16:04N 46°10' W 001°36'3 0.3
2017-Sep-17 06:11N 46°07' W 001°38'2 0.9
2017-Sep-17 04:33N 46°06' W 001°40'0 3.1
2017-Sep-17 04:30N 46°06' W 001°39'5 3.5
2017-Sep-17 03:05N 46°07' W 001°32'1 2.3
2017-Sep-17 02:52N 46°07' W 001°33'2 0.5
2017-Sep-16 23:14N 46°07' W 001°30'1 2.7
2017-Sep-16 22:48N 46°07' W 001°29'1 2.1
2017-Sep-16 22:28N 46°07' W 001°28'0 0.9
2017-Sep-16 22:00N 46°07' W 001°28'0 0.8
2017-Sep-16 21:30N 46°07' W 001°29'0 0.9
2017-Sep-16 21:00N 46°07' W 001°30'0 0.9
2017-Sep-16 20:30N 46°07' W 001°30'0 0.8
2017-Sep-16 20:00N 46°07' W 001°31'1 1.4
2017-Sep-16 19:30N 46°07' W 001°32'2 1.2
2017-Sep-16 17:44N 46°07' W 001°29'13 1.0
2017-Sep-16 04:35N 46°13' W 001°46'1 8.3
2017-Sep-16 04:28N 46°14' W 001°46'4 8.4
2017-Sep-16 04:00N 46°18' W 001°46'4 8.3
2017-Sep-16 03:30N 46°22' W 001°47'4 8.2
2017-Sep-16 03:00N 46°26' W 001°47'4 7.3
2017-Sep-16 02:30N 46°30' W 001°47'0 0.1
2017-Sep-16 02:00N 46°30' W 001°47'0 0.0
2017-Sep-16 01:30N 46°30' W 001°47'0 0.0
2017-Sep-16 01:00N 46°30' W 001°47'0 0.0
2017-Sep-16 00:30N 46°30' W 001°47'0 0.0
2017-Sep-16 00:00N 46°30' W 001°47'0 0.0
2017-Sep-15 23:30N 46°30' W 001°47'0 0.0
2017-Sep-15 23:00N 46°30' W 001°47'0 0.0
2017-Sep-15 22:30N 46°30' W 001°47'0 0.0
2017-Sep-15 22:00N 46°30' W 001°47'0 0.0
2017-Sep-15 21:30N 46°30' W 001°47'0 0.0
2017-Sep-15 21:00N 46°30' W 001°47'0 0.0
2017-Sep-15 20:30N 46°30' W 001°47'0 0.0
2017-Sep-15 20:00N 46°30' W 001°47'0 0.0
2017-Sep-15 19:30N 46°30' W 001°47'0 0.0
2017-Sep-15 19:00N 46°30' W 001°47'0 0.0
2017-Sep-15 18:30N 46°30' W 001°47'0 0.0
2017-Sep-15 18:00N 46°30' W 001°47'0 0.0
2017-Sep-15 17:30N 46°30' W 001°47'0 0.0
2017-Sep-15 17:00N 46°30' W 001°47'0 0.0
2017-Sep-15 16:30N 46°30' W 001°47'0 0.0
2017-Sep-15 16:00N 46°30' W 001°47'0 0.0
2017-Sep-15 15:30N 46°30' W 001°47'0 0.0
2017-Sep-15 15:00N 46°30' W 001°47'0 0.0
2017-Sep-15 14:30N 46°30' W 001°47'0 0.0
2017-Sep-15 14:00N 46°30' W 001°47'0 0.0
2017-Sep-15 13:30N 46°30' W 001°47'0 0.0
2017-Sep-15 13:00N 46°30' W 001°47'0 0.0
2017-Sep-15 12:30N 46°30' W 001°47'0 0.0
2017-Sep-15 12:00N 46°30' W 001°47'0 0.0
2017-Sep-15 11:30N 46°30' W 001°47'0 0.0
2017-Sep-15 11:00N 46°30' W 001°47'0 0.0
2017-Sep-15 10:30N 46°30' W 001°47'0 0.0
2017-Sep-15 10:00N 46°30' W 001°47'0 0.0
2017-Sep-15 09:30N 46°30' W 001°47'0 0.0
2017-Sep-15 09:00N 46°30' W 001°47'0 0.0
2017-Sep-15 08:30N 46°30' W 001°47'0 0.0
2017-Sep-15 08:00N 46°30' W 001°47'0 0.0
2017-Sep-15 07:30N 46°30' W 001°47'0 0.0
2017-Sep-15 07:00N 46°30' W 001°47'0 0.0
2017-Sep-15 06:30N 46°30' W 001°47'0 0.0
2017-Sep-15 06:00N 46°30' W 001°47'0 0.0
2017-Sep-15 05:30N 46°30' W 001°47'0 0.0
2017-Sep-15 05:00N 46°30' W 001°47'0 0.0
2017-Sep-15 04:30N 46°30' W 001°47'0 0.0
2017-Sep-15 04:00N 46°30' W 001°47'0 0.0
2017-Sep-15 03:30N 46°30' W 001°47'0 0.0
2017-Sep-15 03:00N 46°30' W 001°47'0 0.0
2017-Sep-15 02:30N 46°30' W 001°47'0 0.0
2017-Sep-15 02:00N 46°30' W 001°47'0 0.0
2017-Sep-15 01:30N 46°30' W 001°47'0 0.0
2017-Sep-15 01:00N 46°30' W 001°47'0 0.0
2017-Sep-15 00:30N 46°30' W 001°47'0 0.0
2017-Sep-15 00:00N 46°30' W 001°47'0 0.0
2017-Sep-14 23:30N 46°30' W 001°47'0 0.0
2017-Sep-14 23:00N 46°30' W 001°47'0 0.0
2017-Sep-14 22:30N 46°30' W 001°47'0 0.0
2017-Sep-14 22:00N 46°30' W 001°47'0 0.0
2017-Sep-14 21:30N 46°30' W 001°47'0 0.3
2017-Sep-14 21:00N 46°30' W 001°47'1 2.1
2017-Sep-14 20:30N 46°29' W 001°48'5 9.1
2017-Sep-14 20:00N 46°30' W 001°54'5 9.4
2017-Sep-14 19:30N 46°32' W 002°00'5 9.3
2017-Sep-14 19:00N 46°33' W 002°07'5 6.6
2017-Sep-14 18:18N 46°35' W 002°13'0 0.3
2017-Sep-14 18:00N 46°35' W 002°13'1 2.2
2017-Sep-14 17:30N 46°35' W 002°11'4 3.3
2017-Sep-14 16:13N 46°37' W 002°17'1 4.0
2017-Sep-14 16:00N 46°37' W 002°15'4 0.3
2017-Sep-14 03:07N 46°33' W 002°12'2 4.0
2017-Sep-14 02:33N 46°33' W 002°08'0 4.2
2017-Sep-14 02:30N 46°32' W 002°08'2 4.2
2017-Sep-14 01:58N 46°32' W 002°05'2 4.5
2017-Sep-14 01:30N 46°31' W 002°02'2 4.6
2017-Sep-14 01:00N 46°30' W 001°59'3 5.1
2017-Sep-14 00:30N 46°30' W 001°55'3 5.5
2017-Sep-14 00:00N 46°29' W 001°52'3 6.0
2017-Sep-13 23:30N 46°28' W 001°47'1 2.8
2017-Sep-13 23:00N 46°30' W 001°47'0 0.3
2017-Sep-13 22:30N 46°30' W 001°47'1 2.4
2017-Sep-13 22:00N 46°29' W 001°47'3 5.8
2017-Sep-13 21:30N 46°29' W 001°51'3 6.5
2017-Sep-13 21:00N 46°30' W 001°56'3 6.7
2017-Sep-13 20:30N 46°32' W 001°60'3 6.6
2017-Sep-13 20:00N 46°33' W 002°04'3 6.7
2017-Sep-13 19:30N 46°35' W 002°09'4 6.5
2017-Sep-13 18:49N 46°37' W 002°14'5 0.1
2017-Sep-12 04:56N 46°35' W 002°08'4 9.2
2017-Sep-12 04:30N 46°33' W 002°03'4 9.1
2017-Sep-12 04:00N 46°31' W 001°57'4 9.0
2017-Sep-12 03:31N 46°29' W 001°52'3 5.9
2017-Sep-12 03:01N 46°29' W 001°48'0 0.9
2017-Sep-12 02:31N 46°30' W 001°47'0 0.0
2017-Sep-12 02:01N 46°30' W 001°47'0 0.0
2017-Sep-12 01:31N 46°30' W 001°47'0 0.0
2017-Sep-12 01:01N 46°30' W 001°47'0 0.0
2017-Sep-12 00:30N 46°30' W 001°47'0 0.0
2017-Sep-12 00:01N 46°30' W 001°47'0 0.0
2017-Sep-11 23:31N 46°30' W 001°47'0 0.0
2017-Sep-11 23:01N 46°30' W 001°47'0 0.0
2017-Sep-11 22:30N 46°30' W 001°47'0 0.0
2017-Sep-11 22:01N 46°30' W 001°47'0 0.0
2017-Sep-11 21:31N 46°30' W 001°47'0 0.0
2017-Sep-11 21:01N 46°30' W 001°47'0 0.0
2017-Sep-11 20:31N 46°30' W 001°47'0 0.0
2017-Sep-11 20:01N 46°30' W 001°47'0 0.0
2017-Sep-11 19:31N 46°30' W 001°47'0 0.0
2017-Sep-11 19:00N 46°30' W 001°47'0 0.3
2017-Sep-11 18:30N 46°30' W 001°47'0 0.8
2017-Sep-11 18:01N 46°30' W 001°48'4 8.2
2017-Sep-11 17:31N 46°26' W 001°47'4 8.2
2017-Sep-11 17:01N 46°22' W 001°47'4 8.4
2017-Sep-11 16:31N 46°17' W 001°46'4 8.6
2017-Sep-11 16:00N 46°13' W 001°46'3 2.1
2017-Sep-11 14:39N 46°10' W 001°46'1 4.8
2017-Sep-11 14:31N 46°10' W 001°47'3 0.4
2017-Sep-11 06:05N 46°09' W 001°43'7 8.3
2017-Sep-11 05:16N 46°16' W 001°43'2 9.0
2017-Sep-11 04:59N 46°19' W 001°44'4 8.9
2017-Sep-11 04:30N 46°23' W 001°45'5 9.1
2017-Sep-11 04:01N 46°27' W 001°46'3 5.3
2017-Sep-11 03:30N 46°30' W 001°47'0 0.0
2017-Sep-11 03:01N 46°30' W 001°47'0 0.0
2017-Sep-11 02:30N 46°30' W 001°47'0 0.0
2017-Sep-11 02:01N 46°30' W 001°47'0 0.0
2017-Sep-11 01:30N 46°30' W 001°47'0 0.0
2017-Sep-11 01:01N 46°30' W 001°47'0 0.0
2017-Sep-11 00:30N 46°30' W 001°47'0 0.0
2017-Sep-11 00:00N 46°30' W 001°47'0 0.0
2017-Sep-10 23:31N 46°30' W 001°47'0 0.0
2017-Sep-10 23:00N 46°30' W 001°47'0 0.0
2017-Sep-10 22:30N 46°30' W 001°47'0 0.0
2017-Sep-10 22:01N 46°30' W 001°47'0 0.0
2017-Sep-10 21:30N 46°30' W 001°47'0 0.0
2017-Sep-10 21:01N 46°30' W 001°47'  

Dump ship's entire track history